Time;durP1;ratioP1;P1;durP2;ratioP2;P2;SDS_P1;SDS_P2;PMS_P1;PMS_P2;Temp;Humidity;BMP_temperature;BMP_pressure;BME280_temperature;BME280_humidity;BME280_pressure;Samples;Min_cycle;Max_cycle;Signal;HPM_P1;HPM_P2
2023/10/09 00:01:49;;;;;;;0.00;0.00;;;;;;;;;;5058881;28;20028;-82
2023/10/09 00:04:15;;;;;;;0.00;0.00;;;;;;;;;;5041355;28;20024;-83
2023/10/09 00:06:41;;;;;;;0.00;0.00;;;;;;;;;;5074137;28;20038;-82
2023/10/09 00:11:48;;;;;;;0.00;0.00;;;;;;;;;;5075095;28;20067;-80
2023/10/09 00:14:15;;;;;;;0.00;0.00;;;;;;;;;;5056414;28;20060;-82
2023/10/09 00:16:47;;;;;;;0.00;0.00;;;;;;;;;;5073980;28;20468;-83
2023/10/09 00:19:30;;;;;;;0.00;0.00;;;;;;;;;;5072948;28;20034;-81
2023/10/09 00:21:55;;;;;;;0.00;0.00;;;;;;;;;;5039612;28;20036;-82
2023/10/09 00:24:24;;;;;;;0.00;0.00;;;;;;;;;;5056034;28;20036;-83
2023/10/09 00:27:31;;;;;;;0.00;0.00;;;;;;;;;;5072627;28;20028;-81
2023/10/09 00:29:48;;;;;;;0.00;0.00;;;;;;;;;;5069962;28;20040;-83
2023/10/09 00:32:18;;;;;;;0.00;0.00;;;;;;;;;;5072516;28;20024;-83
2023/10/09 00:34:44;;;;;;;0.00;0.00;;;;;;;;;;5072602;28;20040;-83
2023/10/09 00:37:16;;;;;;;0.00;0.00;;;;;;;;;;5072498;28;20037;-82
2023/10/09 00:39:48;;;;;;;0.00;0.00;;;;;;;;;;5051165;28;20024;-83
2023/10/09 00:42:15;;;;;;;0.00;0.00;;;;;;;;;;5036890;28;20036;-84
2023/10/09 00:44:41;;;;;;;0.00;0.00;;;;;;;;;;5036026;28;20078;-82
2023/10/09 00:47:26;;;;;;;0.00;0.00;;;;;;;;;;5051943;28;20068;-82
2023/10/09 00:49:59;;;;;;;0.00;0.00;;;;;;;;;;5023812;28;20036;-83
2023/10/09 00:52:31;;;;;;;0.00;0.00;;;;;;;;;;5053587;28;20029;-83
2023/10/09 00:55:04;;;;;;;0.00;0.00;;;;;;;;;;5052600;28;20086;-83
2023/10/09 00:57:31;;;;;;;0.00;0.00;;;;;;;;;;5036834;28;20029;-83
2023/10/09 00:59:59;;;;;;;0.00;0.00;;;;;;;;;;5019809;28;20443;-83
2023/10/09 01:02:45;;;;;;;0.00;0.00;;;;;;;;;;5020172;28;20126;-83
2023/10/09 01:05:20;;;;;;;0.00;0.00;;;;;;;;;;5053022;28;20024;-82
2023/10/09 01:07:46;;;;;;;0.00;0.00;;;;;;;;;;5041371;28;20051;-82
2023/10/09 01:10:35;;;;;;;0.00;0.00;;;;;;;;;;5072973;28;20522;-83
2023/10/09 01:12:58;;;;;;;0.00;0.00;;;;;;;;;;5057457;28;20087;-82
2023/10/09 01:15:43;;;;;;;0.00;0.00;;;;;;;;;;5039860;28;20120;-83
2023/10/09 01:18:09;;;;;;;0.00;0.00;;;;;;;;;;5056706;28;20424;-83
2023/10/09 01:20:41;;;;;;;0.00;0.00;;;;;;;;;;5039668;28;20048;-83
2023/10/09 01:23:09;;;;;;;0.13;0.00;;;;;;;;;;5036366;28;20074;-82
2023/10/09 01:25:43;;;;;;;0.00;0.00;;;;;;;;;;5076225;28;20021;-82
2023/10/09 01:28:09;;;;;;;0.00;0.00;;;;;;;;;;5060688;28;20040;-82
2023/10/09 01:30:34;;;;;;;0.00;0.00;;;;;;;;;;5075373;28;20033;-83
2023/10/09 01:33:11;;;;;;;0.00;0.00;;;;;;;;;;5059121;28;20094;-82
2023/10/09 01:35:48;;;;;;;0.03;0.00;;;;;;;;;;5076067;28;20447;-83
2023/10/09 01:38:18;;;;;;;0.00;0.00;;;;;;;;;;5075809;28;20067;-83
2023/10/09 01:40:44;;;;;;;0.00;0.00;;;;;;;;;;5075531;28;20031;-83
2023/10/09 01:43:10;;;;;;;0.00;0.00;;;;;;;;;;5058996;28;20028;-81
2023/10/09 01:45:46;;;;;;;0.00;0.00;;;;;;;;;;5059352;28;20127;-82
2023/10/09 01:48:12;;;;;;;0.00;0.00;;;;;;;;;;5060143;28;20037;-83
2023/10/09 01:50:41;;;;;;;0.00;0.00;;;;;;;;;;5076570;28;20039;-83
2023/10/09 01:53:08;;;;;;;0.00;0.00;;;;;;;;;;5075346;28;20089;-82
2023/10/09 01:55:40;;;;;;;0.00;0.00;;;;;;;;;;5076691;28;20024;-82
2023/10/09 01:58:16;;;;;;;0.00;0.00;;;;;;;;;;5075240;28;20035;-83
2023/10/09 02:00:44;;;;;;;0.15;0.00;;;;;;;;;;5075476;28;20025;-81
2023/10/09 02:03:23;;;;;;;0.00;0.00;;;;;;;;;;5060001;28;20369;-82
2023/10/09 02:05:50;;;;;;;0.00;0.00;;;;;;;;;;5075354;28;20043;-83
2023/10/09 02:08:26;;;;;;;0.00;0.00;;;;;;;;;;5075363;28;20024;-82
2023/10/09 02:10:55;;;;;;;0.00;0.00;;;;;;;;;;5075334;28;20436;-82
2023/10/09 02:13:29;;;;;;;0.00;0.00;;;;;;;;;;5074906;28;20029;-84
2023/10/09 02:15:58;;;;;;;0.00;0.00;;;;;;;;;;5076050;28;20033;-83
2023/10/09 02:18:36;;;;;;;0.00;0.00;;;;;;;;;;5077224;28;20067;-82
2023/10/09 02:26:06;;;;;;;0.00;0.00;;;;;;;;;;5075936;28;20025;-82
2023/10/09 02:28:39;;;;;;;0.00;0.00;;;;;;;;;;5059652;28;20725;-83
2023/10/09 02:31:11;;;;;;;0.00;0.00;;;;;;;;;;5060807;28;20028;-83
2023/10/09 02:33:39;;;;;;;0.00;0.00;;;;;;;;;;5063191;28;20044;-82
2023/10/09 02:36:08;;;;;;;0.00;0.00;;;;;;;;;;5079177;28;20020;-83
2023/10/09 02:38:35;;;;;;;0.00;0.00;;;;;;;;;;5059148;28;20454;-83
2023/10/09 02:43:40;;;;;;;0.00;0.00;;;;;;;;;;5058492;28;20052;-83
2023/10/09 02:46:19;;;;;;;0.00;0.00;;;;;;;;;;5060036;28;20359;-83
2023/10/09 02:48:53;;;;;;;0.00;0.00;;;;;;;;;;5075755;28;20031;-82
2023/10/09 02:53:58;;;;;;;0.00;0.00;;;;;;;;;;5063625;28;20029;-83
2023/10/09 02:56:24;;;;;;;0.00;0.00;;;;;;;;;;5053930;28;20036;-84
2023/10/09 02:59:05;;;;;;;0.00;0.00;;;;;;;;;;5054262;28;20064;-83
2023/10/09 03:01:31;;;;;;;0.00;0.00;;;;;;;;;;5054424;28;20061;-83
2023/10/09 03:03:59;;;;;;;0.00;0.00;;;;;;;;;;5054234;28;20060;-84
2023/10/09 03:06:30;;;;;;;0.00;0.00;;;;;;;;;;5037861;28;20090;-84
2023/10/09 03:08:57;;;;;;;0.00;0.00;;;;;;;;;;5054214;28;21156;-83
2023/10/09 03:11:23;;;;;;;0.00;0.00;;;;;;;;;;5053966;28;20035;-81
2023/10/09 03:13:48;;;;;;;0.00;0.00;;;;;;;;;;5053936;28;20116;-83
2023/10/09 03:16:19;;;;;;;0.00;0.00;;;;;;;;;;5037208;28;20112;-83
2023/10/09 03:18:52;;;;;;;0.00;0.00;;;;;;;;;;5038628;28;20354;-82
2023/10/09 03:21:20;;;;;;;0.00;0.00;;;;;;;;;;5037467;28;20032;-83
2023/10/09 03:23:50;;;;;;;0.00;0.00;;;;;;;;;;5053599;28;20028;-83
2023/10/09 03:26:17;;;;;;;0.00;0.00;;;;;;;;;;5053507;28;20457;-83
2023/10/09 03:28:45;;;;;;;0.00;0.00;;;;;;;;;;5054205;28;20025;-84
2023/10/09 03:31:11;;;;;;;0.00;0.00;;;;;;;;;;5037035;28;20036;-83
2023/10/09 03:33:38;;;;;;;0.00;0.00;;;;;;;;;;5053316;28;20041;-82
2023/10/09 03:36:07;;;;;;;0.00;0.00;;;;;;;;;;5053626;28;20025;-83
2023/10/09 03:38:34;;;;;;;0.00;0.00;;;;;;;;;;5053520;28;20469;-81
2023/10/09 03:41:06;;;;;;;0.00;0.00;;;;;;;;;;5053126;28;20076;-83
2023/10/09 03:43:40;;;;;;;0.00;0.00;;;;;;;;;;5053384;28;20024;-81
2023/10/09 03:46:20;;;;;;;0.00;0.00;;;;;;;;;;5053401;28;20031;-82
2023/10/09 03:48:49;;;;;;;0.00;0.00;;;;;;;;;;5053320;28;20129;-83
2023/10/09 03:51:26;;;;;;;0.00;0.00;;;;;;;;;;5054199;28;20056;-83
2023/10/09 03:53:54;;;;;;;0.00;0.00;;;;;;;;;;5052965;28;20028;-83
2023/10/09 03:56:21;;;;;;;0.00;0.00;;;;;;;;;;5069472;28;20028;-82
2023/10/09 03:58:49;;;;;;;0.00;0.00;;;;;;;;;;5074202;28;20082;-83
2023/10/09 04:04:00;;;;;;;0.00;0.00;;;;;;;;;;5074090;28;20035;-83
2023/10/09 04:06:32;;;;;;;0.47;0.28;;;;;;;;;;5072843;28;20029;-83
2023/10/09 04:09:35;;;;;;;0.45;0.30;;;;;;;;;;5073599;28;20036;-83
2023/10/09 04:11:50;;;;;;;0.00;0.00;;;;;;;;;;5073899;28;20028;-82
2023/10/09 04:14:24;;;;;;;0.00;0.00;;;;;;;;;;5072880;28;20693;-83
2023/10/09 04:17:03;;;;;;;0.05;0.00;;;;;;;;;;5073919;28;20032;-82
2023/10/09 04:19:29;;;;;;;0.00;0.00;;;;;;;;;;5071259;28;20074;-83
2023/10/09 04:21:58;;;;;;;0.00;0.00;;;;;;;;;;5072406;28;20012;-83
2023/10/09 04:24:23;;;;;;;0.00;0.00;;;;;;;;;;5072276;28;20024;-83
2023/10/09 04:26:55;;;;;;;0.00;0.00;;;;;;;;;;5072410;28;20347;-83
2023/10/09 04:29:46;;;;;;;0.00;0.00;;;;;;;;;;5072284;28;20032;-83
2023/10/09 04:32:15;;;;;;;0.00;0.00;;;;;;;;;;5073053;28;20032;-83
2023/10/09 04:34:56;;;;;;;0.00;0.00;;;;;;;;;;5072111;28;20045;-83
2023/10/09 04:37:36;;;;;;;0.05;0.00;;;;;;;;;;5072556;28;20053;-75
2023/10/09 04:40:14;;;;;;;0.00;0.00;;;;;;;;;;5072123;28;20546;-75
2023/10/09 04:42:46;;;;;;;0.00;0.00;;;;;;;;;;5056719;28;20039;-75
2023/10/09 04:47:49;;;;;;;0.00;0.00;;;;;;;;;;5072506;28;20071;-75
2023/10/09 04:50:36;;;;;;;0.00;0.00;;;;;;;;;;5070930;28;20487;-76
2023/10/09 04:55:57;;;;;;;0.00;0.00;;;;;;;;;;5074286;28;20102;-74
2023/10/09 04:58:32;;;;;;;0.00;0.00;;;;;;;;;;5075346;28;20086;-75
2023/10/09 05:01:35;;;;;;;0.00;0.00;;;;;;;;;;5073285;28;20036;-72
2023/10/09 05:04:26;;;;;;;0.00;0.00;;;;;;;;;;5066704;28;20055;-73
2023/10/09 05:06:56;;;;;;;0.00;0.00;;;;;;;;;;5070554;28;20431;-74
2023/10/09 05:09:27;;;;;;;0.00;0.00;;;;;;;;;;5063321;28;20036;-73
2023/10/09 05:11:53;;;;;;;0.00;0.00;;;;;;;;;;5056959;28;20366;-74
2023/10/09 05:14:27;;;;;;;0.00;0.00;;;;;;;;;;5071473;28;20124;-74
2023/10/09 05:16:56;;;;;;;0.00;0.00;;;;;;;;;;5073645;28;20021;-75
2023/10/09 05:19:33;;;;;;;0.00;0.00;;;;;;;;;;5070365;28;20067;-74
2023/10/09 05:22:16;;;;;;;0.00;0.00;;;;;;;;;;5067989;28;20024;-79
2023/10/09 05:24:47;;;;;;;0.00;0.00;;;;;;;;;;5071943;28;20181;-79
2023/10/09 05:27:17;;;;;;;;;;;;;;;;;;5070414;28;20335;-79
2023/10/09 05:29:59;;;;;;;0.00;0.00;;;;;;;;;;5068437;28;19924;-79
2023/10/09 05:35:29;;;;;;;0.00;0.00;;;;;;;;;;5335449;22;20056;-79
2023/10/09 05:38:03;;;;;;;0.00;0.00;;;;;;;;;;5054542;28;20032;-79
2023/10/09 05:40:36;;;;;;;0.00;0.00;;;;;;;;;;5058387;28;20436;-82
2023/10/09 05:43:04;;;;;;;0.00;0.00;;;;;;;;;;5062591;28;20107;-80
2023/10/09 06:07:49;;;;;;;0.00;0.00;;;;;;;;;;5089142;22;20060;-89
2023/10/09 06:10:18;;;;;;;0.10;0.00;;;;;;;;;;5058787;28;20127;-85
2023/10/09 06:21:09;;;;;;;0.00;0.00;;;;;;;;;;5074319;28;20031;-78
2023/10/09 06:26:26;;;;;;;0.00;0.00;;;;;;;;;;5071555;28;20031;-80
2023/10/09 06:29:14;;;;;;;0.00;0.00;;;;;;;;;;5038879;28;20858;-77
2023/10/09 06:34:35;;;;;;;0.00;0.00;;;;;;;;;;5072441;28;20036;-77
2023/10/09 06:40:54;;;;;;;0.00;0.00;;;;;;;;;;5058315;28;20039;-78
2023/10/09 06:45:11;;;;;;;0.00;0.00;;;;;;;;;;5070388;28;20410;-75
2023/10/09 06:47:53;;;;;;;0.00;0.00;;;;;;;;;;5072263;28;20077;-77
2023/10/09 06:55:51;;;;;;;0.00;0.00;;;;;;;;;;5054939;28;20070;-75
2023/10/09 06:58:27;;;;;;;0.00;0.00;;;;;;;;;;5065818;28;20056;-76
2023/10/09 07:02:25;;;;;;;0.00;0.00;;;;;;;;;;5023646;28;20052;-78
2023/10/09 07:04:18;;;;;;;0.00;0.00;;;;;;;;;;5044476;28;20455;-80
2023/10/09 07:17:00;;;;;;;0.00;0.00;;;;;;;;;;5081899;28;20028;-78
2023/10/09 07:19:57;;;;;;;0.00;0.00;;;;;;;;;;5091413;28;20077;-78
2023/10/09 07:22:29;;;;;;;0.00;0.00;;;;;;;;;;5076515;28;20028;-76
2023/10/09 07:25:13;;;;;;;0.00;0.00;;;;;;;;;;5091633;28;20028;-78
2023/10/09 07:27:51;;;;;;;0.00;0.00;;;;;;;;;;5037514;28;20037;-78
2023/10/09 07:38:09;;;;;;;0.00;0.00;;;;;;;;;;5065744;28;20589;-79
2023/10/09 07:43:39;;;;;;;0.00;0.00;;;;;;;;;;5025236;28;20026;-79
2023/10/09 07:46:30;;;;;;;0.00;0.00;;;;;;;;;;5024904;28;20041;-79
2023/10/09 07:49:14;;;;;;;0.00;0.00;;;;;;;;;;5048802;28;20029;-79
2023/10/09 07:51:43;;;;;;;0.00;0.00;;;;;;;;;;5015924;28;20041;-80
2023/10/09 07:54:09;;;;;;;;;;;;;;;;;;5027533;28;20027;-78
2023/10/09 07:56:41;;;;;;;0.00;0.00;;;;;;;;;;5058509;28;19999;-80
2023/10/09 07:59:11;;;;;;;0.00;0.00;;;;;;;;;;5060614;28;20036;-79
2023/10/09 08:01:53;;;;;;;0.00;0.00;;;;;;;;;;5043261;28;20789;-77
2023/10/09 08:04:37;;;;;;;0.00;0.00;;;;;;;;;;5060185;28;20043;-78
2023/10/09 08:07:19;;;;;;;0.00;0.00;;;;;;;;;;5043545;28;20106;-78
2023/10/09 08:09:48;;;;;;;0.00;0.00;;;;;;;;;;5034878;28;20079;-76
2023/10/09 08:12:39;;;;;;;0.00;0.00;;;;;;;;;;5074470;28;20055;-77
2023/10/09 08:15:20;;;;;;;0.10;0.00;;;;;;;;;;5061173;28;20454;-78
2023/10/09 08:18:18;;;;;;;0.00;0.00;;;;;;;;;;5062664;28;20496;-74
2023/10/09 08:22:07;;;;;;;0.00;0.00;;;;;;;;;;5066885;28;20025;-73
2023/10/09 08:24:04;;;;;;;0.00;0.00;;;;;;;;;;5059076;28;20032;-75
2023/10/09 08:26:28;;;;;;;0.00;0.00;;;;;;;;;;5105287;22;20060;-85
2023/10/09 08:32:18;;;;;;;0.00;0.00;;;;;;;;;;5079959;22;20110;-87
2023/10/09 08:34:53;;;;;;;0.00;0.00;;;;;;;;;;5079835;22;20059;-86
2023/10/09 08:37:19;;;;;;;0.00;0.00;;;;;;;;;;5023300;28;20033;-87
2023/10/09 08:39:54;;;;;;;0.00;0.00;;;;;;;;;;5036056;28;20051;-85
2023/10/09 08:42:33;;;;;;;0.00;0.00;;;;;;;;;;5059574;28;20036;-92
2023/10/09 08:47:27;;;;;;;0.00;0.00;;;;;;;;;;5058146;22;20091;-82
2023/10/09 08:49:53;;;;;;;0.00;0.00;;;;;;;;;;5067450;22;20053;-82
2023/10/09 08:52:19;;;;;;;0.00;0.00;;;;;;;;;;4999076;28;20133;-83
2023/10/09 08:57:19;;;;;;;0.00;0.00;;;;;;;;;;2822170;22;20110;-85
2023/10/09 08:59:45;;;;;;;0.00;0.00;;;;;;;;;;5020842;28;20028;-84
2023/10/09 09:02:12;;;;;;;0.00;0.00;;;;;;;;;;5076980;28;20032;-86
2023/10/09 09:04:41;;;;;;;0.00;0.00;;;;;;;;;;5058703;22;20147;-88
2023/10/09 09:08:04;;;;;;;0.00;0.00;;;;;;;;;;5038441;28;20025;-89
2023/10/09 09:10:35;;;;;;;0.00;0.00;;;;;;;;;;5060090;28;20042;-87
2023/10/09 09:13:04;;;;;;;0.00;0.00;;;;;;;;;;5040236;28;20418;-78
2023/10/09 09:15:30;;;;;;;0.00;0.00;;;;;;;;;;5034632;28;20031;-80
2023/10/09 09:18:17;;;;;;;0.00;0.00;;;;;;;;;;5070469;28;20025;-80
2023/10/09 09:20:46;;;;;;;0.00;0.00;;;;;;;;;;5029582;28;20115;-80
2023/10/09 09:23:16;;;;;;;0.00;0.00;;;;;;;;;;5034272;28;20028;-80
2023/10/09 09:25:45;;;;;;;;;;;;;;;;;;5069230;28;20511;-79
2023/10/09 09:28:21;;;;;;;0.00;0.00;;;;;;;;;;5054201;28;19920;-80
2023/10/09 09:30:51;;;;;;;0.00;0.00;;;;;;;;;;5067955;28;20111;-81
2023/10/09 09:33:53;;;;;;;;;;;;;;;;;;;;;
2023/10/09 09:38:50;;;;;;;0.00;0.00;;;;;;;;;;5532125;22;20052;-81
2023/10/09 09:41:25;;;;;;;0.00;0.00;;;;;;;;;;5051563;28;20043;-81
2023/10/09 09:44:05;;;;;;;0.00;0.00;;;;;;;;;;5051042;28;20103;-79
2023/10/09 09:46:34;;;;;;;0.00;0.00;;;;;;;;;;5091369;28;20079;-82
2023/10/09 09:49:16;;;;;;;0.10;0.00;;;;;;;;;;5059270;28;20028;-82
2023/10/09 09:51:46;;;;;;;0.00;0.00;;;;;;;;;;5206959;22;20059;-83
2023/10/09 09:54:15;;;;;;;0.00;0.00;;;;;;;;;;5028279;28;20021;-82
2023/10/09 09:56:50;;;;;;;0.00;0.00;;;;;;;;;;5069951;28;20457;-80
2023/10/09 09:59:21;;;;;;;0.00;0.00;;;;;;;;;;5054088;28;20025;-83
2023/10/09 10:01:56;;;;;;;0.00;0.00;;;;;;;;;;5035926;28;20154;-81
2023/10/09 10:04:23;;;;;;;0.00;0.00;;;;;;;;;;5056363;28;20043;-81
2023/10/09 10:06:49;;;;;;;0.00;0.00;;;;;;;;;;5051612;28;20458;-81
2023/10/09 10:09:38;;;;;;;0.00;0.00;;;;;;;;;;5084029;28;20032;-79
2023/10/09 10:21:52;;;;;;;0.00;0.00;;;;;;;;;;5059235;28;20331;-86
2023/10/09 10:29:38;;;;;;;0.00;0.00;;;;;;;;;;5079364;22;20064;-81
2023/10/09 10:32:08;;;;;;;0.00;0.00;;;;;;;;;;5060132;22;20359;-83
2023/10/09 10:41:00;;;;;;;0.00;0.00;;;;;;;;;;5075773;22;19927;-85
2023/10/09 10:43:47;;;;;;;0.00;0.00;;;;;;;;;;5035818;28;20037;-84
2023/10/09 10:46:23;;;;;;;0.13;0.00;;;;;;;;;;5072141;28;20059;-80
2023/10/09 10:51:39;;;;;;;0.00;0.00;;;;;;;;;;5041895;28;20037;-81
2023/10/09 10:56:52;;;;;;;0.00;0.00;;;;;;;;;;5051203;28;20465;-82
2023/10/09 10:59:25;;;;;;;0.00;0.00;;;;;;;;;;5044115;28;20029;-78
2023/10/09 11:07:00;;;;;;;0.00;0.00;;;;;;;;;;5051035;28;20037;-78
2023/10/09 11:09:35;;;;;;;0.00;0.00;;;;;;;;;;5073988;28;20036;-77
2023/10/09 11:12:12;;;;;;;0.00;0.00;;;;;;;;;;5072313;28;20032;-78
2023/10/09 11:15:05;;;;;;;0.00;0.00;;;;;;;;;;5062425;28;20092;-79
2023/10/09 11:17:32;;;;;;;0.00;0.00;;;;;;;;;;5032029;28;21075;-79
2023/10/09 11:19:58;;;;;;;0.00;0.00;;;;;;;;;;5072616;28;20381;-79
2023/10/09 11:22:29;;;;;;;0.00;0.00;;;;;;;;;;5068225;28;20039;-80
2023/10/09 11:25:13;;;;;;;0.00;0.00;;;;;;;;;;5054245;28;20542;-81
2023/10/09 11:27:40;;;;;;;0.00;0.00;;;;;;;;;;5051192;28;20466;-82
2023/10/09 11:30:11;;;;;;;0.00;0.00;;;;;;;;;;5031717;28;20092;-83
2023/10/09 11:32:38;;;;;;;0.00;0.00;;;;;;;;;;5034365;28;20032;-82
2023/10/09 11:35:27;;;;;;;0.00;0.00;;;;;;;;;;5039029;28;20024;-83
2023/10/09 11:37:56;;;;;;;0.00;0.00;;;;;;;;;;5044386;28;20032;-81
2023/10/09 11:40:32;;;;;;;0.00;0.00;;;;;;;;;;5056755;28;20048;-83
2023/10/09 11:43:00;;;;;;;0.00;0.00;;;;;;;;;;5055254;28;20044;-82
2023/10/09 11:45:30;;;;;;;0.00;0.00;;;;;;;;;;5055499;28;20029;-81
2023/10/09 11:48:46;;;;;;;0.00;0.00;;;;;;;;;;5041990;28;20067;-84
2023/10/09 11:51:18;;;;;;;0.00;0.00;;;;;;;;;;5043322;28;20128;-82
2023/10/09 11:53:50;;;;;;;0.00;0.00;;;;;;;;;;5037357;28;20024;-83
2023/10/09 11:56:19;;;;;;;0.00;0.00;;;;;;;;;;5054881;28;20107;-81
2023/10/09 11:58:49;;;;;;;0.30;0.00;;;;;;;;;;5071107;28;20191;-82
2023/10/09 12:01:20;;;;;;;;;;;;;;;;;;5071901;28;20103;-82
2023/10/09 12:03:49;;;;;;;;;;;;;;;;;;5072439;28;19916;-90
2023/10/09 12:06:32;;;;;;;0.00;0.00;;;;;;;;;;5069338;28;19912;-94
2023/10/09 12:08:58;;;;;;;0.00;0.00;;;;;;;;;;5048054;28;20029;-92
2023/10/09 12:11:28;;;;;;;0.00;0.00;;;;;;;;;;5067452;28;20036;-93
2023/10/09 12:13:57;;;;;;;0.00;0.00;;;;;;;;;;5027201;28;20048;-88
2023/10/09 12:16:28;;;;;;;0.00;0.00;;;;;;;;;;5024854;28;20032;-87
2023/10/09 12:18:54;;;;;;;0.00;0.00;;;;;;;;;;5057029;28;20020;-88
2023/10/09 12:21:23;;;;;;;0.00;0.00;;;;;;;;;;5039695;28;20024;-88
2023/10/09 12:23:49;;;;;;;0.00;0.00;;;;;;;;;;5056132;28;20031;-87
2023/10/09 12:26:14;;;;;;;0.00;0.00;;;;;;;;;;5039820;28;20028;-88
2023/10/09 12:28:45;;;;;;;0.00;0.00;;;;;;;;;;5039321;28;20028;-88
2023/10/09 12:31:20;;;;;;;0.00;0.00;;;;;;;;;;5056570;28;20025;-88
2023/10/09 12:33:46;;;;;;;0.00;0.00;;;;;;;;;;5040509;28;20521;-88
2023/10/09 12:36:19;;;;;;;0.00;0.00;;;;;;;;;;5056319;28;20032;-86
2023/10/09 12:38:50;;;;;;;0.00;0.00;;;;;;;;;;5057722;28;20142;-87
2023/10/09 12:41:33;;;;;;;0.00;0.00;;;;;;;;;;5041017;28;20051;-88
2023/10/09 12:43:59;;;;;;;0.00;0.00;;;;;;;;;;5044345;28;20028;-86
2023/10/09 12:46:25;;;;;;;0.00;0.00;;;;;;;;;;5093666;28;20020;-89
2023/10/09 12:48:54;;;;;;;0.00;0.00;;;;;;;;;;5060051;28;20101;-88
2023/10/09 12:51:20;;;;;;;0.00;0.00;;;;;;;;;;5093854;28;20081;-86
2023/10/09 12:53:46;;;;;;;0.25;0.00;;;;;;;;;;5094216;28;20445;-88
2023/10/09 12:56:12;;;;;;;0.00;0.00;;;;;;;;;;5076420;28;20028;-85
2023/10/09 12:58:52;;;;;;;0.00;0.00;;;;;;;;;;5094711;28;20028;-88
2023/10/09 13:01:19;;;;;;;0.00;0.00;;;;;;;;;;5078547;28;20411;-86
2023/10/09 13:03:48;;;;;;;0.00;0.00;;;;;;;;;;5047330;28;20076;-87
2023/10/09 13:06:15;;;;;;;0.00;0.00;;;;;;;;;;5064937;28;20122;-87
2023/10/09 13:08:40;;;;;;;0.00;0.00;;;;;;;;;;5063512;28;20376;-88
2023/10/09 13:11:10;;;;;;;0.00;0.00;;;;;;;;;;5064183;28;20188;-89
2023/10/09 13:13:39;;;;;;;0.00;0.00;;;;;;;;;;5080467;28;20028;-87
2023/10/09 13:16:12;;;;;;;0.00;0.00;;;;;;;;;;5098014;28;20024;-87
2023/10/09 13:18:39;;;;;;;0.00;0.00;;;;;;;;;;5080412;28;20016;-85
2023/10/09 13:21:04;;;;;;;0.00;0.00;;;;;;;;;;5062932;28;20024;-87
2023/10/09 13:23:40;;;;;;;0.00;0.00;;;;;;;;;;5046406;28;20023;-86
2023/10/09 13:26:17;;;;;;;0.00;0.00;;;;;;;;;;5065971;28;20028;-87
2023/10/09 13:28:46;;;;;;;0.00;0.00;;;;;;;;;;5067381;28;20047;-87
2023/10/09 13:31:14;;;;;;;0.00;0.00;;;;;;;;;;5097668;28;20020;-86
2023/10/09 13:33:42;;;;;;;0.00;0.00;;;;;;;;;;5047080;28;20020;-88
2023/10/09 13:38:55;;;;;;;0.00;0.00;;;;;;;;;;5097589;28;20016;-88
2023/10/09 13:41:21;;;;;;;0.00;0.00;;;;;;;;;;5062672;28;20362;-88
2023/10/09 13:43:46;;;;;;;0.00;0.00;;;;;;;;;;5079374;28;20024;-89
2023/10/09 13:46:12;;;;;;;0.00;0.00;;;;;;;;;;5098465;28;20054;-86
2023/10/09 13:48:41;;;;;;;0.00;0.00;;;;;;;;;;5062827;28;20028;-88
2023/10/09 13:51:13;;;;;;;0.00;0.00;;;;;;;;;;5079869;28;20109;-87
2023/10/09 13:53:45;;;;;;;0.10;0.00;;;;;;;;;;5098144;28;20028;-88
2023/10/09 13:56:18;;;;;;;0.00;0.00;;;;;;;;;;5079973;28;20020;-87
2023/10/09 13:58:47;;;;;;;0.00;0.00;;;;;;;;;;5065316;28;20067;-89
2023/10/09 14:01:32;;;;;;;0.00;0.00;;;;;;;;;;5099673;28;20020;-89
2023/10/09 14:03:59;;;;;;;0.25;0.00;;;;;;;;;;5102065;28;20066;-88
2023/10/09 14:06:32;;;;;;;0.00;0.00;;;;;;;;;;5084828;28;20050;-88
2023/10/09 14:09:04;;;;;;;0.00;0.00;;;;;;;;;;5051636;28;20338;-88
2023/10/09 14:11:30;;;;;;;0.00;0.00;;;;;;;;;;5082126;28;20028;-87
2023/10/09 14:13:55;;;;;;;0.00;0.00;;;;;;;;;;5069628;28;20035;-89
2023/10/09 14:16:24;;;;;;;0.00;0.00;;;;;;;;;;5117399;28;20035;-87
2023/10/09 14:19:13;;;;;;;0.00;0.00;;;;;;;;;;5094188;28;20020;-87
2023/10/09 14:21:40;;;;;;;0.00;0.00;;;;;;;;;;5076119;28;20083;-88
2023/10/09 14:24:15;;;;;;;0.00;0.00;;;;;;;;;;5052091;28;20294;-89
2023/10/09 14:26:41;;;;;;;0.00;0.00;;;;;;;;;;5065050;28;20115;-87
2023/10/09 14:29:06;;;;;;;0.00;0.00;;;;;;;;;;5080999;28;20413;-87
2023/10/09 14:31:35;;;;;;;0.00;0.00;;;;;;;;;;5063642;28;20088;-86
2023/10/09 14:34:02;;;;;;;0.00;0.00;;;;;;;;;;5100451;28;20024;-89
2023/10/09 14:36:33;;;;;;;0.00;0.00;;;;;;;;;;5087022;28;20083;-87
2023/10/09 14:39:03;;;;;;;0.00;0.00;;;;;;;;;;5066692;28;20055;-87
2023/10/09 14:41:33;;;;;;;0.00;0.00;;;;;;;;;;5099779;28;20059;-86
2023/10/09 14:43:58;;;;;;;0.00;0.00;;;;;;;;;;5087492;28;20028;-88
2023/10/09 14:46:27;;;;;;;0.00;0.00;;;;;;;;;;5083989;28;20026;-88
2023/10/09 14:48:53;;;;;;;0.00;0.00;;;;;;;;;;5067327;28;20024;-87
2023/10/09 14:51:26;;;;;;;0.00;0.00;;;;;;;;;;5065195;28;20407;-88
2023/10/09 14:54:01;;;;;;;0.00;0.00;;;;;;;;;;5083926;28;20160;-87
2023/10/09 14:56:31;;;;;;;0.00;0.00;;;;;;;;;;5081020;28;20051;-89
2023/10/09 14:58:58;;;;;;;0.00;0.00;;;;;;;;;;5062340;28;20430;-87
2023/10/09 15:01:25;;;;;;;0.00;0.00;;;;;;;;;;5063730;28;20031;-87
2023/10/09 15:03:53;;;;;;;0.00;0.00;;;;;;;;;;5079434;28;20831;-90
2023/10/09 15:06:19;;;;;;;0.00;0.00;;;;;;;;;;5078260;28;20441;-89
2023/10/09 15:08:46;;;;;;;0.00;0.00;;;;;;;;;;5095871;28;20434;-88
2023/10/09 15:11:12;;;;;;;0.00;0.00;;;;;;;;;;5077918;28;20036;-87
2023/10/09 15:13:39;;;;;;;0.00;0.00;;;;;;;;;;5096137;28;20035;-89
2023/10/09 15:16:04;;;;;;;0.00;0.00;;;;;;;;;;5095618;28;20097;-88
2023/10/09 15:18:33;;;;;;;0.00;0.00;;;;;;;;;;5060771;28;20024;-89
2023/10/09 15:20:59;;;;;;;0.00;0.00;;;;;;;;;;5045238;28;20428;-88
2023/10/09 15:23:25;;;;;;;0.00;0.00;;;;;;;;;;5060949;28;20412;-89
2023/10/09 15:25:51;;;;;;;0.00;0.00;;;;;;;;;;5076824;28;20038;-88
2023/10/09 15:28:19;;;;;;;0.00;0.00;;;;;;;;;;5077343;28;20026;-88
2023/10/09 15:30:47;;;;;;;0.00;0.00;;;;;;;;;;5059555;28;20035;-88
2023/10/09 15:33:16;;;;;;;0.00;0.00;;;;;;;;;;5095239;28;20024;-88
2023/10/09 15:35:49;;;;;;;0.00;0.00;;;;;;;;;;5077072;28;20028;-87
2023/10/09 15:38:15;;;;;;;0.00;0.00;;;;;;;;;;5076270;28;20442;-88
2023/10/09 15:40:43;;;;;;;0.00;0.00;;;;;;;;;;5039170;28;20048;-88
2023/10/09 15:43:13;;;;;;;0.00;0.00;;;;;;;;;;5072371;28;20020;-89
2023/10/09 15:45:43;;;;;;;;;;;;;;;;;;5056667;28;20410;-89
2023/10/09 15:48:08;;;;;;;0.00;0.00;;;;;;;;;;5072611;28;19912;-89
2023/10/09 15:50:36;;;;;;;0.10;0.00;;;;;;;;;;5071969;28;20394;-89
2023/10/09 15:53:02;;;;;;;0.00;0.00;;;;;;;;;;5073298;28;20047;-87
2023/10/09 15:55:27;;;;;;;0.00;0.00;;;;;;;;;;5056479;28;20033;-88
2023/10/09 15:57:54;;;;;;;0.00;0.00;;;;;;;;;;5056774;28;20039;-87
2023/10/09 16:00:20;;;;;;;0.00;0.00;;;;;;;;;;5073531;28;20465;-89
2023/10/09 16:02:52;;;;;;;0.00;0.00;;;;;;;;;;5073268;28;20074;-88
2023/10/09 16:05:18;;;;;;;0.00;0.00;;;;;;;;;;5073321;28;20086;-89
2023/10/09 16:07:43;;;;;;;0.05;0.00;;;;;;;;;;5056186;28;20032;-88
2023/10/09 16:10:09;;;;;;;0.00;0.00;;;;;;;;;;5056538;28;20335;-87
2023/10/09 16:12:43;;;;;;;0.00;0.00;;;;;;;;;;5073772;28;20048;-86
2023/10/09 16:15:10;;;;;;;0.00;0.00;;;;;;;;;;5073146;28;20044;-87
2023/10/09 16:17:37;;;;;;;0.00;0.00;;;;;;;;;;5072862;28;20029;-86
2023/10/09 16:20:05;;;;;;;0.00;0.00;;;;;;;;;;5073183;28;20067;-87
2023/10/09 16:22:32;;;;;;;0.00;0.00;;;;;;;;;;5073012;28;20111;-88
2023/10/09 16:25:01;;;;;;;0.00;0.00;;;;;;;;;;5073085;28;20033;-87
2023/10/09 16:27:27;;;;;;;0.00;0.00;;;;;;;;;;5072704;28;20039;-86
2023/10/09 16:29:53;;;;;;;0.00;0.00;;;;;;;;;;5072697;28;20032;-87
2023/10/09 16:32:23;;;;;;;0.00;0.00;;;;;;;;;;5056632;28;20083;-88
2023/10/09 16:34:49;;;;;;;;;;;;;;;;;;5074357;28;20029;-88
2023/10/09 16:37:16;;;;;;;0.00;0.00;;;;;;;;;;5072691;28;19912;-88
2023/10/09 16:39:41;;;;;;;0.00;0.00;;;;;;;;;;5056257;28;20119;-86
2023/10/09 16:42:09;;;;;;;0.00;0.00;;;;;;;;;;5055718;28;20068;-87
2023/10/09 16:44:36;;;;;;;0.00;0.00;;;;;;;;;;5073978;28;20067;-88
2023/10/09 16:47:05;;;;;;;0.00;0.00;;;;;;;;;;5072657;28;20029;-88
2023/10/09 16:49:31;;;;;;;0.00;0.00;;;;;;;;;;5055839;28;20362;-88
2023/10/09 16:51:57;;;;;;;0.00;0.00;;;;;;;;;;5056299;28;20024;-87
2023/10/09 16:54:23;;;;;;;0.00;0.00;;;;;;;;;;5072662;28;20035;-88
2023/10/09 16:56:51;;;;;;;0.00;0.00;;;;;;;;;;5072493;28;20095;-89
2023/10/09 16:59:16;;;;;;;0.00;0.00;;;;;;;;;;5056396;28;20025;-87
2023/10/09 17:01:44;;;;;;;0.00;0.00;;;;;;;;;;5072532;28;20362;-88
2023/10/09 17:04:11;;;;;;;0.05;0.00;;;;;;;;;;5073517;28;20021;-87
2023/10/09 17:06:38;;;;;;;0.00;0.00;;;;;;;;;;5072592;28;20032;-86
2023/10/09 17:09:08;;;;;;;0.00;0.00;;;;;;;;;;5056223;28;20090;-88
2023/10/09 17:11:36;;;;;;;0.00;0.00;;;;;;;;;;5055885;28;20121;-88
2023/10/09 17:14:05;;;;;;;0.00;0.00;;;;;;;;;;5074500;28;20513;-87
2023/10/09 17:16:30;;;;;;;0.00;0.00;;;;;;;;;;5073140;28;20082;-87
2023/10/09 17:18:56;;;;;;;0.00;0.00;;;;;;;;;;5075222;28;20028;-86
2023/10/09 17:21:23;;;;;;;0.00;0.00;;;;;;;;;;5058883;28;20024;-87
2023/10/09 17:23:50;;;;;;;0.00;0.00;;;;;;;;;;5059280;28;20078;-88
2023/10/09 17:26:18;;;;;;;0.00;0.00;;;;;;;;;;5076386;28;20370;-89
2023/10/09 17:28:43;;;;;;;0.00;0.00;;;;;;;;;;5075113;28;20330;-89
2023/10/09 17:31:09;;;;;;;0.00;0.00;;;;;;;;;;5055747;28;20032;-89